Maher, Colorado
Current Conditions -  °F | °C
As of 1:53 AM on Friday 31 Oct 2014 (Local Time) from KMTJ Reporting Station
Clear Clear  
Wind Chill: 29°   Ceiling: Unl
Heat Index: 36°   Visibility: 10mi
Dew Point: 25°   Wind: 9mph
Humidity: 64%   Direction: 160°SSE
Pressure: 30.27"   Gusts: NA
Location:  38.53°N, 107.55°W
Report Text: KMTJ 310753Z AUTO 16008KT 10SM CLR 02/M04 A3027 RMK AO2 SLP214 T00221039
Loading
Personal Weather Stations






























Interactive Weather Map
Tropical Storm Tracking
New forecast layout! Learn more

10-Day Weather Forecast

Advertisements
Track Severe Weather on mobile